KFWC

Details ICAO KFWC
Name FAIRFIELD MUNI
Region United States
Timezone America/Chicago (UTC-5.0)
Plans Departing 1
Arriving 3
Stats Elevation 436 ft / 133 m (AMSL)
Location 38.378973° -88.411368°
Runways 2
Magnetic Variation 2.883° W
Sunrise 2018-05-27 10:35:25 UTC / 2018-05-27 05:35:25 Local
Sunset 2018-05-28 01:09:07 UTC / 2018-05-27 20:09:07 Local
Advertisement - Login to hide

Runways

ID Width Length Bearing (true) Bearing (mag) Surface Threshold Offset Overrun Length
09 75 ft / 23 m 3,991 ft / 1,217 m 90.39° 93.27° Asphalt 0 ft / 0 m 0 ft / 0 m
18 60 ft / 18 m 2,003 ft / 610 m 180.61° 183.49° Asphalt 0 ft / 0 m 0 ft / 0 m
27 75 ft / 23 m 3,991 ft / 1,217 m 270.40° 273.28° Asphalt 0 ft / 0 m 0 ft / 0 m
36 60 ft / 18 m 2,003 ft / 610 m 0.61° 3.49° Asphalt 0 ft / 0 m 0 ft / 0 m

Map

Weather


0- 5 10 15 20 25 30 35+ Temperature / ° C

Clouds and Precipitation
Forecast for 2018-05-27 12:00 UTC. Updated an hour ago

Ground ~20,000 ft ~40,000 ft Winds

METAR

KFWC 271015Z AUTO 00000KT 5SM BR CLR 20/20 A2986 RMK AO1 T02000200

TAF

Not found

Frequencies

Recorded 119.42 MHz AWOS 3
Unicom 123.05 MHz CTAF/UNICOM
Warning: Do not use this data for real-world aviation or navigation. No guarantee of current accuracy is given.